Time;durP1;ratioP1;P1;durP2;ratioP2;P2;SDS_P1;SDS_P2;PMS_P1;PMS_P2;Temp;Humidity;BMP_temperature;BMP_pressure;BME280_temperature;BME280_humidity;BME280_pressure;Samples;Min_cycle;Max_cycle;Signal;HPM_P1;HPM_P2
2021/09/21 00:00:21;;;;;;;10.45;7.95;;;;;;;8.23;91.12;102971.31;5028559;28;20034;-76
2021/09/21 00:02:46;;;;;;;9.32;7.53;;;;;;;8.22;91.38;102971.19;5024493;28;20021;-78
2021/09/21 00:05:12;;;;;;;10.52;7.40;;;;;;;8.20;90.83;102963.25;5027224;28;20031;-76
2021/09/21 00:07:37;;;;;;;10.70;6.85;;;;;;;8.18;91.26;102953.47;5028079;28;20041;-76
2021/09/21 00:10:06;;;;;;;10.18;7.60;;;;;;;8.19;91.08;102963.16;5028579;28;20060;-76
2021/09/21 00:12:31;;;;;;;10.23;6.85;;;;;;;8.15;91.42;102962.06;5029853;28;20079;-76
2021/09/21 00:14:57;;;;;;;10.32;7.72;;;;;;;8.13;91.69;102963.69;5028639;28;20484;-76
2021/09/21 00:17:23;;;;;;;11.10;6.88;;;;;;;8.10;91.52;102959.16;5027535;28;20045;-75
2021/09/21 00:19:48;;;;;;;10.32;7.28;;;;;;;8.07;91.60;102961.59;5028154;28;20061;-77
2021/09/21 00:22:14;;;;;;;11.25;7.25;;;;;;;8.04;91.95;102961.41;5029454;28;20026;-77
2021/09/21 00:24:39;;;;;;;9.82;7.18;;;;;;;8.03;92.23;102963.94;5029829;28;20036;-77
2021/09/21 00:27:07;;;;;;;15.05;7.40;;;;;;;7.99;91.99;102965.47;5029316;28;20029;-76
2021/09/21 00:29:53;;;;;;;11.63;7.40;;;;;;;7.96;91.80;102967.88;5029837;28;20029;-76
2021/09/21 00:32:25;;;;;;;8.52;7.03;;;;;;;7.96;91.69;102973.13;5028482;28;20455;-75
2021/09/21 00:34:53;;;;;;;12.60;7.70;;;;;;;7.97;91.57;102974.06;5027085;28;20384;-76
2021/09/21 00:37:34;;;;;;;11.60;7.18;;;;;;;7.95;91.84;102971.34;5032827;28;20079;-76
2021/09/21 00:40:00;;;;;;;11.75;6.80;;;;;;;7.93;91.70;102980.81;5029489;28;20029;-76
2021/09/21 00:42:31;;;;;;;12.88;7.75;;;;;;;7.91;91.60;102974.59;5033295;28;20032;-75
2021/09/21 00:45:06;;;;;;;14.80;8.00;;;;;;;7.88;91.99;102982.25;5033092;28;20025;-77
2021/09/21 00:47:32;;;;;;;11.85;7.53;;;;;;;7.83;92.50;102986.31;5032533;28;20038;-75
2021/09/21 00:49:58;;;;;;;12.88;7.90;;;;;;;7.80;92.63;102987.03;5033440;28;20483;-76
2021/09/21 00:52:25;;;;;;;12.60;8.50;;;;;;;7.76;92.65;102991.16;5031105;28;20240;-75
2021/09/21 00:54:50;;;;;;;11.45;8.55;;;;;;;7.74;93.18;102994.50;5031424;28;20022;-77
2021/09/21 00:57:16;;;;;;;11.90;8.85;;;;;;;7.71;93.50;102997.81;5033395;28;20437;-77
2021/09/21 01:00:02;;;;;;;13.10;8.35;;;;;;;7.69;93.44;102999.47;5032140;28;20041;-76
2021/09/21 01:02:27;;;;;;;11.65;8.38;;;;;;;7.67;93.63;102995.81;5033021;28;20033;-75
2021/09/21 01:04:53;;;;;;;13.88;8.75;;;;;;;7.65;93.75;102986.97;5027517;28;20028;-77
2021/09/21 01:07:18;;;;;;;9.77;7.63;;;;;;;7.62;94.08;102984.13;5032953;28;20036;-76
2021/09/21 01:09:44;;;;;;;11.93;8.77;;;;;;;7.63;93.80;102982.44;5030802;28;20379;-75
2021/09/21 01:12:10;;;;;;;14.43;9.05;;;;;;;7.62;94.23;102986.75;5032961;28;20025;-77
2021/09/21 01:14:35;;;;;;;14.00;8.25;;;;;;;7.60;94.32;102977.91;5030263;28;20502;-77
2021/09/21 01:17:01;;;;;;;11.10;8.20;;;;;;;7.58;94.39;102974.25;5031769;28;20041;-75
2021/09/21 01:19:26;;;;;;;11.48;8.35;;;;;;;7.56;93.71;102971.56;5031639;28;20048;-76
2021/09/21 01:21:52;;;;;;;14.73;9.93;;;;;;;7.55;94.11;102964.50;5032853;28;20033;-75
2021/09/21 01:24:37;;;;;;;10.93;8.98;;;;;;;7.56;94.23;102957.56;5030760;28;20069;-76
2021/09/21 01:27:02;;;;;;;13.70;9.63;;;;;;;7.56;94.87;102954.94;5029682;28;20029;-76
2021/09/21 01:29:28;;;;;;;10.73;8.35;;;;;;;7.55;94.61;102954.00;5031654;28;20028;-77
2021/09/21 01:31:53;;;;;;;13.52;9.05;;;;;;;7.54;95.14;102956.53;5032707;28;20435;-77
2021/09/21 01:34:19;;;;;;;12.10;8.70;;;;;;;7.53;95.05;102957.38;5031159;28;20479;-77
2021/09/21 01:36:45;;;;;;;13.07;9.27;;;;;;;7.52;94.87;102952.94;5029381;28;20030;-76
2021/09/21 01:39:11;;;;;;;12.75;9.30;;;;;;;7.52;94.98;102959.06;5032233;28;20109;-76
2021/09/21 01:41:36;;;;;;;12.80;9.68;;;;;;;7.51;95.30;102964.22;5029874;28;20445;-77
2021/09/21 01:44:05;;;;;;;12.93;9.63;;;;;;;7.48;95.34;102956.19;5032593;28;20075;-76
2021/09/21 01:46:31;;;;;;;18.73;9.68;;;;;;;7.47;95.29;102962.22;5030593;28;20112;-75
2021/09/21 01:48:56;;;;;;;14.32;8.85;;;;;;;7.45;95.41;102966.44;5031841;28;20025;-76
2021/09/21 01:51:35;;;;;;;12.55;9.50;;;;;;;7.44;95.12;102960.31;5032189;28;20033;-76
2021/09/21 01:54:30;;;;;;;13.68;9.60;;;;;;;7.45;94.77;102955.97;5031467;28;20383;-75
2021/09/21 01:59:30;;;;;;;14.30;9.65;;;;;;;7.42;95.73;102951.47;5030417;28;20045;-77
2021/09/21 02:01:55;;;;;;;12.45;8.80;;;;;;;7.42;94.97;102961.94;5030956;28;20037;-77
2021/09/21 02:04:21;;;;;;;13.60;9.82;;;;;;;7.42;94.88;102954.09;5030043;28;20103;-76
2021/09/21 02:06:47;;;;;;;14.75;8.65;;;;;;;7.45;94.50;102950.72;5030520;28;20541;-77
2021/09/21 02:09:14;;;;;;;17.17;10.52;;;;;;;7.42;94.66;102947.13;5030843;28;20029;-78
2021/09/21 02:11:59;;;;;;;15.75;9.38;;;;;;;7.42;95.21;102952.34;5031179;28;20029;-77
2021/09/21 02:14:26;;;;;;;11.50;8.55;;;;;;;7.43;95.47;102966.34;5032100;28;20033;-76
2021/09/21 02:16:54;;;;;;;14.48;9.82;;;;;;;7.41;94.98;102961.00;5031056;28;20202;-74
2021/09/21 02:19:20;;;;;;;12.55;9.60;;;;;;;7.42;95.06;102962.81;5032127;28;20026;-77
2021/09/21 02:21:46;;;;;;;12.40;9.23;;;;;;;7.40;95.56;102969.66;5028960;28;20029;-77
2021/09/21 02:24:11;;;;;;;15.57;9.95;;;;;;;7.38;95.79;102968.69;5030803;28;20037;-76
2021/09/21 02:26:36;;;;;;;18.23;10.43;;;;;;;7.39;95.36;102967.88;5030138;28;20347;-77
2021/09/21 02:29:03;;;;;;;16.67;9.95;;;;;;;7.38;95.06;102958.22;5029969;28;20024;-76
2021/09/21 02:31:28;;;;;;;14.30;9.70;;;;;;;7.37;95.58;102956.38;5029543;28;20480;-78
2021/09/21 02:33:54;;;;;;;14.55;9.73;;;;;;;7.35;95.39;102965.88;5029715;28;20028;-76
2021/09/21 02:36:19;;;;;;;16.80;10.55;;;;;;;7.35;95.71;102972.81;5029961;28;20033;-76
2021/09/21 02:38:45;;;;;;;14.32;9.73;;;;;;;7.31;95.73;102969.09;5030044;28;20531;-76
2021/09/21 02:41:10;;;;;;;16.33;9.90;;;;;;;7.29;95.43;102969.81;5029675;28;20435;-77
2021/09/21 02:43:36;;;;;;;19.60;10.68;;;;;;;7.26;96.10;102970.53;5029699;28;20026;-77
2021/09/21 02:46:01;;;;;;;17.45;10.32;;;;;;;7.21;96.18;102978.06;5029375;28;20117;-76
2021/09/21 02:48:31;;;;;;;17.95;10.48;;;;;;;7.19;95.84;102984.00;5030241;28;20036;-75
2021/09/21 02:50:58;;;;;;;16.40;9.65;;;;;;;7.16;95.71;102989.03;5028160;28;20052;-77
2021/09/21 02:53:23;;;;;;;13.40;9.85;;;;;;;7.14;95.53;102993.28;5031471;28;20041;-76
2021/09/21 02:55:49;;;;;;;13.73;8.95;;;;;;;7.14;95.63;102988.06;5031821;28;20093;-76
2021/09/21 02:58:14;;;;;;;13.57;10.05;;;;;;;7.14;95.47;103001.16;5029967;28;20026;-77
2021/09/21 03:00:40;;;;;;;14.75;9.75;;;;;;;7.11;95.55;102996.63;5030686;28;20066;-76
2021/09/21 03:03:06;;;;;;;14.13;9.73;;;;;;;7.08;95.50;102997.31;5027229;28;20053;-75
2021/09/21 03:05:37;;;;;;;14.35;9.48;;;;;;;7.05;96.03;102996.19;5029850;28;20030;-76
2021/09/21 03:08:07;;;;;;;14.10;9.20;;;;;;;7.02;95.85;102991.66;5030642;28;20095;-75
2021/09/21 03:17:04;;;;;;;14.48;9.77;;;;;;;6.93;95.71;102996.28;5029534;28;20030;-76
2021/09/21 03:19:15;;;;;;;13.35;9.00;;;;;;;6.85;95.96;103003.66;5028671;28;20506;-76
2021/09/21 03:21:44;;;;;;;15.02;9.27;;;;;;;6.84;96.05;103000.94;5030692;28;20030;-76
2021/09/21 03:24:10;;;;;;;12.57;9.40;;;;;;;6.83;95.79;103005.25;5026599;28;20053;-77
2021/09/21 03:26:35;;;;;;;14.45;10.20;;;;;;;6.82;95.83;102994.69;5029350;28;20115;-77
2021/09/21 03:29:01;;;;;;;16.42;10.20;;;;;;;6.80;95.88;102998.91;5029334;28;20026;-75
2021/09/21 03:31:26;;;;;;;14.98;9.68;;;;;;;6.78;95.86;103010.97;5030316;28;20021;-76
2021/09/21 03:33:51;;;;;;;17.50;9.90;;;;;;;6.75;95.98;103012.59;5030041;28;20037;-77
2021/09/21 03:36:17;;;;;;;14.18;9.45;;;;;;;6.74;95.91;103010.78;5029620;28;20045;-76
2021/09/21 03:38:42;;;;;;;13.10;9.65;;;;;;;6.74;96.18;103022.94;5029353;28;20033;-76
2021/09/21 03:41:08;;;;;;;14.40;10.20;;;;;;;6.72;95.89;103033.31;5029407;28;20120;-77
2021/09/21 03:43:33;;;;;;;13.98;9.93;;;;;;;6.69;95.79;103030.50;5028675;28;20103;-76
2021/09/21 03:45:59;;;;;;;19.50;10.63;;;;;;;6.68;95.89;103025.16;5028407;28;20024;-77
2021/09/21 03:48:24;;;;;;;14.35;9.77;;;;;;;6.68;95.53;103019.91;5030512;28;20032;-76
2021/09/21 03:50:49;;;;;;;18.98;10.63;;;;;;;6.68;95.70;103020.81;5028968;28;20084;-76
2021/09/21 03:53:15;;;;;;;14.85;10.80;;;;;;;6.70;96.29;103028.75;5028006;28;20033;-77
2021/09/21 03:55:40;;;;;;;17.55;11.77;;;;;;;6.69;96.52;103029.59;5028969;28;20090;-77
2021/09/21 03:58:06;;;;;;;15.98;10.90;;;;;;;6.69;96.24;103030.50;5029823;28;20025;-76
2021/09/21 04:00:32;;;;;;;19.58;11.25;;;;;;;6.70;96.52;103028.75;5030711;28;20032;-77
2021/09/21 04:02:57;;;;;;;16.48;11.07;;;;;;;6.66;96.49;103022.44;5026282;28;20653;-76
2021/09/21 04:05:23;;;;;;;17.08;10.95;;;;;;;6.66;96.39;103026.75;5028427;28;20033;-76
2021/09/21 04:07:50;;;;;;;20.02;12.65;;;;;;;6.65;97.07;103022.34;5028390;28;20643;-77
2021/09/21 04:10:15;;;;;;;17.25;11.98;;;;;;;6.64;97.37;103034.50;5028998;28;20038;-76
2021/09/21 04:12:41;;;;;;;19.33;13.35;;;;;;;6.62;97.11;103036.13;5030177;28;20025;-76
2021/09/21 04:15:08;;;;;;;19.55;12.93;;;;;;;6.58;96.94;103040.22;5034299;28;20029;-76
2021/09/21 04:17:33;;;;;;;20.45;13.10;;;;;;;6.57;96.89;103037.50;5032601;28;20046;-76
2021/09/21 04:19:58;;;;;;;21.60;12.10;;;;;;;6.57;97.23;103037.50;5034166;28;20105;-76
2021/09/21 04:22:24;;;;;;;18.80;12.13;;;;;;;6.55;96.78;103041.72;5033262;28;20071;-77
2021/09/21 04:24:50;;;;;;;16.85;11.07;;;;;;;6.54;96.54;103040.81;5032589;28;20384;-75
2021/09/21 04:27:22;;;;;;;21.38;13.07;;;;;;;6.53;96.76;103045.94;5032475;28;20038;-75
2021/09/21 04:29:50;;;;;;;14.65;10.75;;;;;;;6.51;96.80;103052.75;5031893;28;20030;-76
2021/09/21 04:32:19;;;;;;;16.77;11.75;;;;;;;6.50;96.67;103056.22;5031585;28;20040;-76
2021/09/21 04:34:46;;;;;;;15.98;11.63;;;;;;;6.49;97.16;103062.22;5031038;28;20029;-76
2021/09/21 04:37:11;;;;;;;17.13;11.57;;;;;;;6.45;96.92;103065.44;5032962;28;20017;-76
2021/09/21 04:39:41;;;;;;;18.70;10.65;;;;;;;6.44;96.72;103067.13;5033298;28;20025;-76
2021/09/21 04:42:07;;;;;;;16.58;10.88;;;;;;;6.43;96.82;103072.25;5030081;28;20017;-77
2021/09/21 04:44:32;;;;;;;17.27;10.65;;;;;;;6.40;96.49;103076.47;5031958;28;20032;-76
2021/09/21 04:46:57;;;;;;;19.13;11.15;;;;;;;6.39;96.50;103074.66;5031555;28;20158;-76
2021/09/21 04:49:23;;;;;;;17.95;11.77;;;;;;;6.38;96.94;103062.38;5033355;28;20029;-76
2021/09/21 04:51:48;;;;;;;20.20;11.70;;;;;;;6.38;97.25;103070.22;5032458;28;20139;-77
2021/09/21 04:54:14;;;;;;;19.20;12.00;;;;;;;6.37;96.94;103070.13;5031329;28;20021;-76
2021/09/21 04:56:39;;;;;;;20.52;11.45;;;;;;;6.35;96.73;103067.41;5033098;28;20047;-77
2021/09/21 04:59:04;;;;;;;15.25;11.40;;;;;;;6.32;97.08;103077.66;5031409;28;20037;-77
2021/09/21 05:01:30;;;;;;;15.85;10.70;;;;;;;6.32;96.85;103072.44;5031345;28;20034;-76
2021/09/21 05:03:55;;;;;;;17.00;11.23;;;;;;;6.32;97.33;103075.03;5027579;28;20450;-76
2021/09/21 05:06:21;;;;;;;22.67;14.07;;;;;;;6.31;97.35;103078.44;5029200;28;20033;-77
2021/09/21 05:08:46;;;;;;;26.67;13.77;;;;;;;6.30;97.18;103086.19;5031863;28;20048;-76
2021/09/21 05:11:12;;;;;;;25.33;14.70;;;;;;;6.31;97.80;103085.38;5031053;28;20132;-75
2021/09/21 05:13:37;;;;;;;25.25;15.00;;;;;;;6.30;97.63;103087.09;5030259;28;20498;-77
2021/09/21 05:16:03;;;;;;;27.40;15.60;;;;;;;6.31;97.55;103088.91;5031888;28;20090;-75
2021/09/21 05:18:28;;;;;;;23.27;13.80;;;;;;;6.31;97.62;103088.91;5030418;28;20046;-76
2021/09/21 05:20:54;;;;;;;20.33;13.10;;;;;;;6.31;97.86;103091.53;5059233;28;21450;-76
2021/09/21 05:23:20;;;;;;;22.40;13.38;;;;;;;6.31;97.75;103083.69;5032434;28;20029;-76
2021/09/21 05:25:45;;;;;;;20.85;12.30;;;;;;;6.32;98.02;103082.88;5028314;28;20060;-77
2021/09/21 05:28:11;;;;;;;23.58;14.55;;;;;;;6.36;97.89;103090.16;5031712;28;20032;-76
2021/09/21 05:30:36;;;;;;;24.83;15.15;;;;;;;6.39;98.01;103089.47;5029552;28;20037;-77
2021/09/21 05:33:02;;;;;;;24.48;15.98;;;;;;;6.41;98.25;103095.69;5031897;28;20025;-76
2021/09/21 05:35:27;;;;;;;29.13;15.88;;;;;;;6.44;98.09;103089.75;5032805;28;20018;-76
2021/09/21 05:37:52;;;;;;;25.17;16.42;;;;;;;6.47;98.85;103095.19;5033046;28;20026;-76
2021/09/21 05:40:18;;;;;;;28.45;17.23;;;;;;;6.50;98.82;103098.06;5031511;28;20487;-76
2021/09/21 05:42:45;;;;;;;29.02;17.70;;;;;;;6.52;98.97;103101.66;5031480;28;20032;-77
2021/09/21 05:45:11;;;;;;;34.53;19.55;;;;;;;6.56;98.99;103096.75;5033287;28;20029;-75
2021/09/21 05:47:41;;;;;;;34.65;19.63;;;;;;;6.62;99.13;103093.66;5033209;28;20029;-76
2021/09/21 05:50:11;;;;;;;33.08;18.67;;;;;;;6.76;99.05;103086.75;5029597;28;21390;-76
2021/09/21 05:52:37;;;;;;;33.05;18.23;;;;;;;6.88;99.39;103081.47;5061496;28;20049;-77
2021/09/21 05:55:04;;;;;;;28.85;18.08;;;;;;;6.98;99.19;103078.66;5031608;28;20029;-76
2021/09/21 05:57:30;;;;;;;26.27;17.10;;;;;;;7.07;99.52;103087.13;5031398;28;20124;-76
2021/09/21 06:00:24;;;;;;;28.48;17.50;;;;;;;7.18;99.66;103086.94;5031289;28;20132;-76
2021/09/21 06:02:50;;;;;;;34.72;17.10;;;;;;;7.24;99.80;103090.88;5027577;28;20041;-78
2021/09/21 06:05:15;;;;;;;45.38;18.65;;;;;;;7.35;100.00;103101.13;5032536;28;20095;-76
2021/09/21 06:07:47;;;;;;;38.00;16.13;;;;;;;7.42;100.00;103100.75;5031922;28;20032;-78
2021/09/21 06:10:35;;;;;;;33.08;17.02;;;;;;;7.49;99.63;103104.66;5031128;28;20029;-77
2021/09/21 06:13:01;;;;;;;42.33;16.95;;;;;;;7.59;99.69;103114.94;5032993;28;20079;-76
2021/09/21 06:15:27;;;;;;;28.27;14.95;;;;;;;7.66;99.22;103114.53;5032511;28;20030;-76
2021/09/21 06:18:06;;;;;;;29.35;15.43;;;;;;;7.75;98.87;103109.91;5026749;28;20057;-76
2021/09/21 06:20:31;;;;;;;29.38;14.80;;;;;;;7.84;98.91;103116.53;5031690;28;20399;-77
2021/09/21 06:22:57;;;;;;;24.52;14.82;;;;;;;7.92;99.13;103117.94;5032940;28;20026;-77
2021/09/21 06:25:22;;;;;;;28.75;14.90;;;;;;;8.02;99.00;103122.97;5031876;28;20030;-77
2021/09/21 06:28:08;;;;;;;31.15;16.20;;;;;;;8.13;99.24;103121.03;5030338;28;20076;-76
2021/09/21 06:30:33;;;;;;;27.00;14.98;;;;;;;8.21;99.09;103127.66;5030459;28;20120;-77
2021/09/21 06:32:59;;;;;;;26.58;15.60;;;;;;;8.28;99.28;103118.47;5030636;28;20117;-77
2021/09/21 06:35:25;;;;;;;22.85;15.25;;;;;;;8.36;98.80;103121.59;5030746;28;20037;-79
2021/09/21 06:37:50;;;;;;;24.33;15.52;;;;;;;8.44;98.53;103128.22;5033372;28;20107;-77
2021/09/21 06:40:20;;;;;;;25.63;15.70;;;;;;;8.52;98.68;103123.44;5030755;28;20471;-77
2021/09/21 06:42:45;;;;;;;22.85;15.65;;;;;;;8.63;98.53;103138.16;5023726;28;20802;-74
2021/09/21 06:45:14;;;;;;;25.35;16.20;;;;;;;8.77;98.92;103144.25;5028325;28;20108;-76
2021/09/21 06:47:40;;;;;;;29.20;16.45;;;;;;;8.91;98.97;103155.59;5030963;28;20472;-77
2021/09/21 06:50:07;;;;;;;21.48;14.82;;;;;;;9.03;98.44;103153.69;5030950;28;20037;-76
2021/09/21 06:52:33;;;;;;;30.90;14.80;;;;;;;9.15;98.46;103155.25;5032532;28;20029;-76
2021/09/21 06:54:58;;;;;;;19.02;12.82;;;;;;;9.28;97.65;103144.66;5030886;28;20559;-77
2021/09/21 06:57:26;;;;;;;19.05;13.05;;;;;;;9.41;97.08;103154.16;5030142;28;20435;-78
2021/09/21 06:59:53;;;;;;;20.92;12.00;;;;;;;9.53;96.55;103153.97;5031219;28;20061;-76
2021/09/21 07:02:18;;;;;;;20.83;10.95;;;;;;;9.67;96.35;103155.69;5028548;28;20100;-75
2021/09/21 07:04:44;;;;;;;15.05;11.63;;;;;;;9.79;95.56;103153.78;5026907;28;20124;-76
2021/09/21 07:07:09;;;;;;;22.05;12.20;;;;;;;9.96;95.57;103156.44;5029341;28;20064;-77
2021/09/21 07:09:35;;;;;;;19.13;12.32;;;;;;;10.09;94.53;103163.28;5029757;28;20029;-76
2021/09/21 07:12:01;;;;;;;27.00;12.80;;;;;;;10.25;93.53;103165.94;5032130;28;20387;-76
2021/09/21 07:14:27;;;;;;;16.73;12.15;;;;;;;10.38;93.65;103157.03;5029090;28;20033;-75
2021/09/21 07:16:53;;;;;;;21.88;11.77;;;;;;;10.53;93.34;103169.25;5030631;28;20048;-77
2021/09/21 07:19:18;;;;;;;21.33;12.10;;;;;;;10.66;92.46;103168.16;5030148;28;20128;-76
2021/09/21 07:21:47;;;;;;;19.65;9.82;;;;;;;10.75;91.69;103169.56;5030682;28;20039;-76
2021/09/21 07:24:20;;;;;;;18.08;10.40;;;;;;;10.84;89.77;103173.50;5028583;28;20057;-75
2021/09/21 07:26:50;;;;;;;16.42;10.23;;;;;;;10.91;88.44;103171.28;5015754;28;20365;-76
2021/09/21 07:29:18;;;;;;;16.17;9.70;;;;;;;10.97;88.11;103170.69;5029641;28;20037;-76
2021/09/21 07:31:52;;;;;;;13.32;9.75;;;;;;;11.02;87.57;103185.00;5032102;28;20039;-77
2021/09/21 07:34:18;;;;;;;15.20;10.07;;;;;;;11.04;87.01;103175.47;5030367;28;20037;-75
2021/09/21 07:36:45;;;;;;;12.98;9.48;;;;;;;11.06;86.49;103179.06;5030890;28;20033;-77
2021/09/21 07:39:11;;;;;;;14.07;9.55;;;;;;;11.06;85.98;103186.97;5031401;28;20108;-77
2021/09/21 07:41:36;;;;;;;13.82;9.20;;;;;;;11.09;85.99;103192.41;5029952;28;20491;-75
2021/09/21 07:44:02;;;;;;;14.68;8.93;;;;;;;11.12;85.79;103189.94;5026664;28;20081;-76
2021/09/21 07:46:27;;;;;;;14.90;8.27;;;;;;;11.17;85.74;103190.19;5032113;28;20053;-77
2021/09/21 07:48:53;;;;;;;15.68;9.00;;;;;;;11.26;85.86;103187.13;5030469;28;20029;-75
2021/09/21 07:51:18;;;;;;;12.27;8.95;;;;;;;11.37;85.74;103191.22;5031760;28;20040;-77
2021/09/21 07:53:43;;;;;;;13.40;9.27;;;;;;;11.50;86.57;103192.72;5026159;28;20029;-75
2021/09/21 07:56:09;;;;;;;12.50;8.00;;;;;;;11.66;87.74;103197.03;5028063;28;20480;-75
2021/09/21 07:58:34;;;;;;;12.85;7.88;;;;;;;11.81;87.98;103208.38;5032959;28;20072;-76
2021/09/21 08:01:00;;;;;;;10.65;7.70;;;;;;;11.98;86.38;103200.41;5027079;28;20032;-76
2021/09/21 08:03:25;;;;;;;9.93;7.25;;;;;;;12.12;82.64;103183.50;5022294;28;20034;-76
2021/09/21 08:05:50;;;;;;;16.40;7.22;;;;;;;12.27;80.30;103179.78;5025908;28;20034;-75
2021/09/21 08:08:16;;;;;;;10.57;7.03;;;;;;;12.42;83.34;103191.06;5019235;28;20025;-74
2021/09/21 08:10:43;;;;;;;7.35;6.00;;;;;;;12.59;80.78;103183.03;5022229;28;20419;-76
2021/09/21 08:13:09;;;;;;;9.27;6.20;;;;;;;12.72;76.15;103171.28;5021375;28;20053;-76
2021/09/21 08:15:34;;;;;;;11.75;6.15;;;;;;;12.84;78.26;103179.75;5025048;28;20055;-76
2021/09/21 08:18:01;;;;;;;6.90;4.60;;;;;;;12.96;73.22;103160.91;5026768;28;20124;-76
2021/09/21 08:20:27;;;;;;;11.43;5.25;;;;;;;13.11;73.47;103161.56;5025389;28;20041;-74
2021/09/21 08:22:53;;;;;;;10.40;4.25;;;;;;;13.26;72.00;103168.34;5026451;28;20029;-76
2021/09/21 08:25:19;;;;;;;4.95;2.70;;;;;;;13.42;65.16;103147.03;5028095;28;20028;-75
2021/09/21 08:27:45;;;;;;;5.45;3.20;;;;;;;13.62;68.58;103163.75;5027639;28;20037;-76
2021/09/21 08:30:11;;;;;;;9.32;2.72;;;;;;;13.79;64.81;103151.19;5026845;28;20037;-75
2021/09/21 08:32:38;;;;;;;5.85;3.08;;;;;;;13.93;62.03;103150.84;5021295;28;20483;-76
2021/09/21 08:35:04;;;;;;;6.10;3.50;;;;;;;14.10;63.01;103156.81;5026753;28;20033;-75
2021/09/21 08:37:30;;;;;;;6.72;3.70;;;;;;;14.27;59.52;103146.88;5026171;28;20061;-77
2021/09/21 08:39:55;;;;;;;4.70;3.10;;;;;;;14.43;63.16;103165.16;5026796;28;20490;-76
2021/09/21 08:42:21;;;;;;;4.57;2.83;;;;;;;14.59;61.86;103160.44;5026668;28;20017;-77
2021/09/21 08:44:46;;;;;;;3.33;3.03;;;;;;;14.71;58.84;103145.03;5025074;28;20088;-75
2021/09/21 08:47:13;;;;;;;3.15;2.42;;;;;;;14.75;58.12;103156.66;5028423;28;20099;-75
2021/09/21 08:49:39;;;;;;;7.57;3.22;;;;;;;14.88;57.84;103152.66;5025982;28;20028;-77
2021/09/21 08:52:04;;;;;;;6.18;2.80;;;;;;;15.02;56.75;103143.47;5024778;28;20446;-76
2021/09/21 08:54:30;;;;;;;4.75;2.10;;;;;;;15.15;54.02;103129.78;5024689;28;20163;-75
2021/09/21 08:56:57;;;;;;;3.25;1.90;;;;;;;15.22;53.81;103129.97;5028765;28;20021;-77
2021/09/21 08:59:31;;;;;;;6.22;2.42;;;;;;;15.34;57.26;103154.28;5031643;28;20136;-76
2021/09/21 09:02:02;;;;;;;4.75;2.38;;;;;;;15.42;56.71;103163.38;5031154;28;20388;-76
2021/09/21 09:04:30;;;;;;;4.10;2.83;;;;;;;15.57;53.33;103151.50;5023228;28;20041;-76
2021/09/21 09:06:58;;;;;;;4.47;2.88;;;;;;;15.66;52.83;103150.03;5031827;28;20030;-77
2021/09/21 09:09:27;;;;;;;5.18;2.80;;;;;;;15.79;52.72;103143.38;5030288;28;22000;-76
2021/09/21 09:11:55;;;;;;;6.20;2.80;;;;;;;15.98;52.15;103139.59;5028822;28;20033;-76
2021/09/21 09:14:29;;;;;;;6.60;3.22;;;;;;;16.17;52.60;103142.81;5030627;28;20053;-75
2021/09/21 09:17:00;;;;;;;3.95;2.80;;;;;;;16.19;53.89;103146.41;5030001;28;20104;-76
2021/09/21 09:19:36;;;;;;;5.78;2.60;;;;;;;16.38;51.14;103134.56;5022845;28;20054;-76
2021/09/21 09:22:06;;;;;;;5.20;2.58;;;;;;;16.49;51.04;103142.84;5031570;28;20025;-76
2021/09/21 09:24:32;;;;;;;6.28;2.30;;;;;;;16.57;49.93;103153.72;5030702;28;20099;-76
2021/09/21 09:26:58;;;;;;;7.22;2.20;;;;;;;16.59;50.23;103152.91;5029676;28;20053;-77
2021/09/21 09:29:23;;;;;;;6.00;2.40;;;;;;;16.69;48.52;103140.78;5031133;28;20048;-75
2021/09/21 09:31:49;;;;;;;4.28;2.08;;;;;;;16.65;49.51;103139.78;5027582;28;20114;-75
2021/09/21 09:34:24;;;;;;;6.00;2.28;;;;;;;16.78;48.23;103142.78;5029264;28;20546;-76
2021/09/21 09:36:54;;;;;;;3.92;2.25;;;;;;;16.91;48.84;103136.97;5027423;28;20033;-76
2021/09/21 09:39:24;;;;;;;5.95;2.35;;;;;;;17.13;50.33;103149.09;5028134;28;20536;-77
2021/09/21 09:41:51;;;;;;;3.30;2.47;;;;;;;17.51;46.11;103127.88;5026363;28;20029;-76
2021/09/21 09:44:20;;;;;;;5.65;2.10;;;;;;;17.87;47.94;103136.69;5028105;28;20435;-75
2021/09/21 09:46:55;;;;;;;3.95;1.70;;;;;;;18.19;43.85;103134.78;5029117;28;20391;-75
2021/09/21 09:49:27;;;;;;;4.10;1.92;;;;;;;18.86;42.39;103126.34;5027575;28;20095;-76
2021/09/21 09:51:55;;;;;;;4.13;2.20;;;;;;;20.05;40.95;103130.97;5028541;28;20025;-76
2021/09/21 09:54:21;;;;;;;4.90;1.90;;;;;;;21.35;38.84;103131.50;5028789;28;20570;-76
2021/09/21 09:56:47;;;;;;;6.25;1.50;;;;;;;22.39;33.67;103114.31;5027600;28;20037;-74
2021/09/21 09:59:16;;;;;;;4.30;1.45;;;;;;;23.36;33.06;103116.28;5029117;28;20029;-75
2021/09/21 10:01:43;;;;;;;1.92;1.33;;;;;;;23.72;30.87;103114.41;5026391;28;20033;-75
2021/09/21 10:04:11;;;;;;;3.50;1.55;;;;;;;24.39;32.77;103105.25;5023813;28;20491;-76
2021/09/21 10:06:37;;;;;;;1.10;0.90;;;;;;;25.01;27.54;103098.56;5028580;28;20565;-76
2021/09/21 10:09:03;;;;;;;3.13;1.10;;;;;;;25.56;27.61;103097.22;5026590;28;20079;-77
2021/09/21 10:11:39;;;;;;;4.03;1.33;;;;;;;26.06;27.79;103102.97;5028210;28;20491;-75
2021/09/21 10:14:06;;;;;;;1.80;1.30;;;;;;;26.12;26.42;103105.56;5026017;28;20080;-76
2021/09/21 10:16:32;;;;;;;5.90;1.75;;;;;;;26.39;26.53;103104.28;5030072;28;20396;-76
2021/09/21 10:19:43;;;;;;;2.50;1.30;;;;;;;26.92;27.57;103104.41;5030718;28;20050;-77
2021/09/21 10:22:08;;;;;;;1.20;0.80;;;;;;;26.80;26.61;103095.63;5028309;28;20391;-76
2021/09/21 10:24:48;;;;;;;2.67;1.17;;;;;;;26.40;27.43;103095.28;5030826;28;20029;-76
2021/09/21 10:27:20;;;;;;;2.15;1.48;;;;;;;26.12;27.26;103100.16;5032690;28;20071;-76
2021/09/21 10:30:00;;;;;;;6.00;1.80;;;;;;;25.10;30.11;103095.81;5030853;28;20043;-76
2021/09/21 10:32:25;;;;;;;3.95;1.90;;;;;;;25.05;30.57;103100.34;5030465;28;20501;-75
2021/09/21 10:34:51;;;;;;;3.45;1.80;;;;;;;24.44;31.50;103093.56;5029844;28;20035;-76
2021/09/21 10:37:19;;;;;;;3.17;1.70;;;;;;;25.66;31.32;103112.34;5030219;28;20026;-77
2021/09/21 10:40:00;;;;;;;6.30;2.00;;;;;;;25.97;30.42;103101.22;5026557;28;20037;-76
2021/09/21 10:43:11;;;;;;;5.78;2.20;;;;;;;26.04;30.60;103097.56;5025280;28;20026;-77
2021/09/21 10:45:36;;;;;;;3.65;2.15;;;;;;;26.51;30.53;103108.63;5027899;28;20048;-77
2021/09/21 10:48:18;;;;;;;3.80;2.25;;;;;;;26.43;29.98;103110.56;5029682;28;20029;-77
2021/09/21 10:50:52;;;;;;;2.80;1.93;;;;;;;27.54;28.53;103114.19;5023214;28;20514;-78
2021/09/21 10:53:21;;;;;;;4.78;2.10;;;;;;;27.16;29.64;103117.53;5024083;28;20033;-77
2021/09/21 10:55:57;;;;;;;4.97;2.28;;;;;;;26.56;28.71;103100.44;5029450;28;20488;-76
2021/09/21 10:58:23;;;;;;;5.10;1.60;;;;;;;27.02;29.14;103105.19;5029316;28;20083;-76
2021/09/21 11:00:48;;;;;;;4.38;2.00;;;;;;;27.12;28.76;103113.09;5029702;28;20025;-77
2021/09/21 11:03:14;;;;;;;7.93;2.03;;;;;;;27.45;29.25;103118.91;5026342;28;20076;-75
2021/09/21 11:05:41;;;;;;;3.97;1.77;;;;;;;27.48;29.47;103119.72;5029071;28;20048;-76
2021/09/21 11:08:11;;;;;;;3.22;2.45;;;;;;;27.54;28.47;103108.78;5028939;28;20112;-77
2021/09/21 11:11:00;;;;;;;2.15;1.75;;;;;;;26.86;30.82;103115.34;5030416;28;20026;-76
2021/09/21 11:13:38;;;;;;;4.82;2.10;;;;;;;26.04;32.17;103116.44;5030493;28;20107;-76
2021/09/21 11:16:09;;;;;;;10.68;2.20;;;;;;;25.88;33.37;103126.50;5028213;28;20388;-76
2021/09/21 11:18:42;;;;;;;7.82;2.92;;;;;;;25.73;32.63;103116.78;5029467;28;20141;-77
2021/09/21 11:21:09;;;;;;;;;;;;;;;26.90;29.60;103121.56;5029640;28;20037;-77
2021/09/21 11:23:37;;;;;;;2.97;1.70;;;;;;;27.14;28.98;103112.16;5032331;28;19968;-76
2021/09/21 11:26:06;;;;;;;4.15;2.42;;;;;;;27.35;27.87;103110.03;5029822;28;20099;-76
2021/09/21 11:28:33;;;;;;;5.35;2.70;;;;;;;26.61;30.32;103097.69;5026577;28;20025;-75
2021/09/21 11:31:02;;;;;;;4.30;2.28;;;;;;;27.80;27.52;103104.69;5027461;28;20033;-76
2021/09/21 11:33:39;;;;;;;5.50;2.30;;;;;;;28.16;27.59;103107.59;5044809;28;20114;-75